createdAt,value
2019-03-21T18:37:10.067Z,28.40
2019-03-21T18:39:38.663Z,29.30
2019-03-21T18:42:07.113Z,29.80
2019-03-21T18:44:35.923Z,30.20
2019-03-21T18:47:04.466Z,30.80
2019-03-21T18:49:32.873Z,31.40
2019-03-21T18:52:01.395Z,31.20
2019-03-21T18:54:30.237Z,31.10
2019-03-21T18:57:11.362Z,30.50
2019-03-21T20:56:32.653Z,35.90
2019-03-21T20:59:01.085Z,36.20
2019-03-21T21:01:29.970Z,36.40
2019-03-21T21:03:58.484Z,35.70
2019-03-21T21:06:27.035Z,36.10
2019-03-21T21:08:55.487Z,37.00
2019-03-21T21:11:23.930Z,35.40
2019-03-21T21:13:52.396Z,36.10
2019-03-21T21:16:20.861Z,37.50
2019-03-21T21:18:49.304Z,36.50
2019-03-21T21:21:17.769Z,37.60
2019-03-21T21:23:46.217Z,37.80
2019-03-21T21:26:14.677Z,36.70
2019-03-21T21:28:43.225Z,36.10
2019-03-21T21:31:11.823Z,36.00
2019-03-21T21:33:40.552Z,36.80
2019-03-21T21:36:21.307Z,37.40
2019-03-21T21:38:40.137Z,37.80
2019-03-21T21:41:08.587Z,36.30
2019-03-21T21:43:37.103Z,35.40
2019-03-21T21:46:05.640Z,35.50
2019-03-21T21:48:34.145Z,36.30
2019-03-21T21:51:03.047Z,35.50
2019-03-21T21:53:31.813Z,35.50
2019-03-21T21:56:00.379Z,35.90
2019-03-21T21:58:28.963Z,35.20
2019-03-21T22:00:57.894Z,36.10
2019-03-21T22:03:26.345Z,36.70
2019-03-21T22:05:54.789Z,35.40
2019-03-21T22:08:23.336Z,36.60
2019-03-21T22:10:52.055Z,35.20
2019-03-21T22:13:20.578Z,35.90
2019-03-21T22:15:49.313Z,35.10
2019-03-21T22:18:20.901Z,36.40
2019-03-21T22:20:49.345Z,36.00
2019-03-21T22:23:18.078Z,36.10
2019-03-21T22:25:46.909Z,35.00
2019-03-21T22:28:15.364Z,34.20
2019-03-21T22:30:43.822Z,34.00
2019-03-21T22:33:12.564Z,34.40
2019-03-21T22:35:41.041Z,36.00
2019-03-21T22:38:09.503Z,34.90
2019-03-21T22:40:38.309Z,35.30
2019-03-21T22:43:06.757Z,35.80
2019-03-21T22:45:35.206Z,35.70
2019-03-21T22:48:03.669Z,36.30
2019-03-21T22:50:32.211Z,35.70
2019-03-21T22:53:01.043Z,34.60
2019-03-21T22:55:29.506Z,35.10
2019-03-21T22:57:58.116Z,35.50
2019-03-21T23:00:34.863Z,35.70
2019-03-21T23:03:03.657Z,34.80
2019-03-21T23:05:33.033Z,33.80
2019-03-21T23:08:01.478Z,34.60
2019-03-21T23:10:29.947Z,35.20
2019-03-21T23:12:58.393Z,35.80
2019-03-21T23:15:27.201Z,35.20
2019-03-21T23:17:55.681Z,35.40
2019-03-21T23:20:24.194Z,34.50
2019-03-21T23:22:52.666Z,33.80
2019-03-21T23:25:21.111Z,34.30
2019-03-21T23:27:49.556Z,33.70
2019-03-21T23:30:19.478Z,33.90
2019-03-21T23:32:48.145Z,34.90
2019-03-21T23:35:16.663Z,35.10
2019-03-21T23:37:45.134Z,34.10
2019-03-21T23:40:15.212Z,33.50
2019-03-21T23:42:44.375Z,34.50
2019-03-21T23:45:13.767Z,35.00
2019-03-21T23:47:42.356Z,35.10
2019-03-21T23:50:13.876Z,33.00
2019-03-21T23:52:42.421Z,32.60
2019-03-21T23:55:11.903Z,33.20
2019-03-21T23:57:40.418Z,33.50
